Time;durP1;ratioP1;P1;durP2;ratioP2;P2;SDS_P1;SDS_P2;PMS_P1;PMS_P2;Temp;Humidity;BMP_temperature;BMP_pressure;BME280_temperature;BME280_humidity;BME280_pressure;Samples;Min_cycle;Max_cycle;Signal;HPM_P1;HPM_P2
2023/10/14 00:01:29;;;;;;;2.87;0.90;;;;;;;15.90;98.41;99932.47;3615004;39;20066;-69
2023/10/14 00:03:56;;;;;;;2.67;0.80;;;;;;;15.77;99.11;99936.38;3617231;39;20268;-70
2023/10/14 00:06:22;;;;;;;0.93;0.73;;;;;;;15.73;100.00;99953.94;3619412;39;20422;-69
2023/10/14 00:08:54;;;;;;;1.35;0.50;;;;;;;15.66;100.00;99981.72;3617444;39;20051;-69
2023/10/14 00:11:21;;;;;;;2.15;0.68;;;;;;;15.46;100.00;99933.03;3615622;39;20271;-69
2023/10/14 00:13:52;;;;;;;2.00;0.57;;;;;;;15.60;100.00;99947.09;3614758;39;20047;-69
2023/10/14 00:18:55;;;;;;;0.65;0.50;;;;;;;15.52;100.00;99939.72;3615363;39;20334;-68
2023/10/14 00:21:25;;;;;;;0.65;0.35;;;;;;;15.47;100.00;99951.00;3618227;39;20046;-68
2023/10/14 00:23:56;;;;;;;1.17;0.65;;;;;;;15.23;100.00;99923.59;3614541;39;20105;-69
2023/10/14 00:26:26;;;;;;;1.33;0.60;;;;;;;15.47;100.00;99966.38;3616340;39;20331;-69
2023/10/14 00:29:17;;;;;;;1.30;0.60;;;;;;;15.26;100.00;99912.47;3615292;39;20071;-69
2023/10/14 00:31:51;;;;;;;1.52;0.50;;;;;;;15.44;100.00;99967.53;3607322;39;20105;-68
2023/10/14 00:34:22;;;;;;;0.70;0.38;;;;;;;15.31;100.00;99972.41;3614709;39;20393;-69
2023/10/14 00:36:48;;;;;;;1.13;0.38;;;;;;;15.23;100.00;99980.44;3614744;39;20092;-68
2023/10/14 00:39:16;;;;;;;3.30;0.70;;;;;;;15.45;100.00;100012.59;3616173;39;20300;-67
2023/10/14 00:41:50;;;;;;;1.63;0.60;;;;;;;15.45;100.00;100017.16;3615245;39;20087;-68
2023/10/14 00:44:17;;;;;;;1.40;0.70;;;;;;;15.46;100.00;100011.59;3615778;39;20092;-70
2023/10/14 00:46:50;;;;;;;0.88;0.60;;;;;;;15.45;100.00;100019.88;3615343;39;20049;-67
2023/10/14 00:49:28;;;;;;;2.42;0.73;;;;;;;15.44;100.00;100020.84;3615173;39;20070;-69
2023/10/14 00:51:59;;;;;;;1.30;0.70;;;;;;;15.41;100.00;100011.16;3615583;39;20050;-68
2023/10/14 00:59:55;;;;;;;2.83;0.70;;;;;;;15.42;100.00;100028.28;3608111;39;20419;-69
2023/10/14 01:02:30;;;;;;;2.05;1.17;;;;;;;15.28;100.00;100006.06;3615673;39;20054;-69
2023/10/14 01:04:57;;;;;;;2.92;1.42;;;;;;;15.10;100.00;99986.16;3615429;39;20066;-68
2023/10/14 01:07:23;;;;;;;1.23;1.13;;;;;;;14.84;100.00;99950.69;3617885;39;20050;-67
2023/10/14 01:09:52;;;;;;;2.67;1.88;;;;;;;15.43;100.00;100043.53;3616629;39;20073;-68
2023/10/14 01:12:28;;;;;;;2.28;1.40;;;;;;;15.43;100.00;100044.38;3618105;39;20039;-68
2023/10/14 01:15:10;;;;;;;2.25;2.05;;;;;;;15.44;100.00;100042.53;3617184;39;20069;-68
2023/10/14 01:17:35;;;;;;;3.45;2.30;;;;;;;15.41;100.00;100054.50;3614305;39;20055;-68
2023/10/14 01:22:41;;;;;;;2.50;2.30;;;;;;;15.02;100.00;100040.16;3615186;39;20062;-67
2023/10/14 01:25:12;;;;;;;2.38;1.15;;;;;;;15.22;99.76;100100.56;3615498;39;20506;-69
2023/10/14 01:27:42;;;;;;;2.65;0.93;;;;;;;14.98;99.14;100087.44;3614758;39;20055;-68
2023/10/14 01:30:11;;;;;;;4.03;1.10;;;;;;;14.66;97.75;100063.34;3609674;39;20055;-68
2023/10/14 01:33:08;;;;;;;3.63;0.90;;;;;;;14.84;97.10;100116.63;3615088;39;20126;-68
2023/10/14 01:37:57;;;;;;;3.85;1.00;;;;;;;14.73;96.00;100127.56;3614829;39;20774;-68
2023/10/14 01:43:05;;;;;;;4.88;1.13;;;;;;;14.23;96.42;100068.03;3613530;39;20128;-67
2023/10/14 01:45:40;;;;;;;3.20;1.13;;;;;;;14.68;96.85;100153.31;3615027;39;20077;-66
2023/10/14 01:50:47;;;;;;;4.72;1.25;;;;;;;14.67;97.03;100173.25;3614914;39;20066;-67
2023/10/14 01:53:18;;;;;;;4.28;1.17;;;;;;;14.37;96.92;100137.97;3614463;39;20107;-67
2023/10/14 01:55:47;;;;;;;7.30;1.50;;;;;;;14.66;97.75;100194.03;3615884;39;20039;-67
2023/10/14 01:58:29;;;;;;;5.90;1.50;;;;;;;14.60;96.97;100192.72;3615009;39;20317;-68
2023/10/14 02:01:15;;;;;;;6.50;1.60;;;;;;;14.13;96.60;100142.81;3617277;39;20386;-68
2023/10/14 02:03:51;;;;;;;4.18;1.40;;;;;;;14.45;95.96;100210.28;3604974;39;20039;-67
2023/10/14 02:06:20;;;;;;;6.78;1.50;;;;;;;14.42;95.31;100217.81;3616395;39;20335;-67
2023/10/14 02:08:53;;;;;;;7.05;1.70;;;;;;;14.39;95.55;100227.03;3615344;39;20313;-68
2023/10/14 02:11:36;;;;;;;;;;;;;;;14.35;95.38;100233.72;3616698;39;20122;-66
2023/10/14 02:14:07;;;;;;;6.53;1.70;;;;;;;14.37;96.81;100250.69;3613903;39;19946;-68
2023/10/14 02:16:44;;;;;;;6.55;1.90;;;;;;;14.20;96.40;100213.41;3616722;39;20051;-69
2023/10/14 02:19:18;;;;;;;6.85;1.67;;;;;;;14.41;96.98;100254.81;3614697;39;20290;-67
2023/10/14 02:21:46;;;;;;;6.93;1.70;;;;;;;14.46;97.58;100258.00;3615876;39;20086;-69
2023/10/14 02:24:12;;;;;;;5.18;1.52;;;;;;;14.50;96.84;100264.84;3617664;39;20051;-68
2023/10/14 02:26:38;;;;;;;7.53;2.17;;;;;;;14.49;96.18;100263.09;3616841;39;20164;-69
2023/10/14 02:29:09;;;;;;;9.35;2.35;;;;;;;14.30;96.03;100235.94;3617134;39;20047;-68
2023/10/14 02:31:37;;;;;;;9.57;1.85;;;;;;;14.52;95.51;100289.91;3607702;39;20083;-67
2023/10/14 02:34:08;;;;;;;6.65;1.80;;;;;;;14.52;94.96;100297.19;3617756;39;20099;-69
2023/10/14 02:37:01;;;;;;;9.77;2.10;;;;;;;14.51;94.54;100299.03;3615847;39;20368;-68
2023/10/14 02:39:27;;;;;;;7.13;1.88;;;;;;;14.48;93.84;100307.38;3615467;39;20054;-68
2023/10/14 02:42:06;;;;;;;7.40;2.53;;;;;;;14.34;93.24;100297.75;3611391;39;20413;-67
2023/10/14 02:44:47;;;;;;;10.15;2.45;;;;;;;14.37;93.18;100318.28;3615315;39;20059;-68
2023/10/14 02:47:13;;;;;;;10.52;2.10;;;;;;;14.29;91.21;100331.59;3617514;39;20094;-67
2023/10/14 02:49:40;;;;;;;8.20;2.03;;;;;;;14.24;89.78;100333.81;3617657;39;20046;-68
2023/10/14 02:52:12;;;;;;;5.43;2.10;;;;;;;14.20;89.65;100337.75;3619660;39;20366;-68
2023/10/14 02:54:45;;;;;;;12.07;2.20;;;;;;;14.11;87.42;100345.69;3616786;39;20127;-69
2023/10/14 02:59:43;;;;;;;9.40;2.13;;;;;;;13.98;86.45;100366.59;3616296;39;20049;-67
2023/10/14 03:04:55;;;;;;;9.80;2.17;;;;;;;13.85;85.59;100387.53;3616761;39;20086;-68
2023/10/14 03:07:27;;;;;;;9.02;2.10;;;;;;;13.81;85.39;100397.72;3617859;39;20451;-69
2023/10/14 03:09:58;;;;;;;7.97;2.20;;;;;;;13.76;85.87;100412.59;3617582;39;20062;-67
2023/10/14 03:12:27;;;;;;;14.15;2.28;;;;;;;13.49;85.91;100377.91;3617573;39;20123;-69
2023/10/14 03:14:54;;;;;;;11.48;2.65;;;;;;;13.64;86.56;100422.56;3616041;39;20062;-68
2023/10/14 03:17:25;;;;;;;13.77;2.78;;;;;;;13.60;87.40;100427.34;3617915;39;20067;-68
2023/10/14 03:19:54;;;;;;;8.88;2.10;;;;;;;13.44;88.13;100421.47;3619135;39;20062;-68
2023/10/14 03:22:23;;;;;;;9.32;2.15;;;;;;;13.49;87.88;100448.97;3617348;39;20049;-69
2023/10/14 03:24:52;;;;;;;9.35;2.45;;;;;;;13.23;88.32;100411.38;3609269;39;20067;-69
2023/10/14 03:27:19;;;;;;;9.25;1.98;;;;;;;13.26;87.90;100420.22;3618276;39;20224;-69
2023/10/14 03:29:54;;;;;;;10.73;2.33;;;;;;;13.27;88.16;100436.31;3616094;39;20078;-70
2023/10/14 03:32:32;;;;;;;11.60;2.40;;;;;;;13.34;87.84;100461.84;3618952;39;20478;-70
2023/10/14 03:35:06;;;;;;;8.70;2.42;;;;;;;13.29;87.76;100460.47;3616516;39;20255;-70
2023/10/14 03:37:35;;;;;;;11.85;2.28;;;;;;;13.20;88.21;100467.44;3619780;39;20043;-68
2023/10/14 03:42:52;;;;;;;11.80;2.08;;;;;;;13.08;86.92;100480.06;3618883;39;20100;-68
2023/10/14 03:45:24;;;;;;;12.87;2.50;;;;;;;12.66;86.94;100428.44;3616320;39;20059;-69
2023/10/14 03:47:59;;;;;;;10.95;2.55;;;;;;;12.96;86.13;100491.78;3616627;39;20067;-68
2023/10/14 03:50:25;;;;;;;9.13;2.65;;;;;;;12.94;85.96;100500.03;3615067;39;20058;-70
2023/10/14 03:52:55;;;;;;;7.70;1.75;;;;;;;12.90;85.84;100509.31;3618758;39;20066;-68
2023/10/14 03:55:25;;;;;;;9.30;2.30;;;;;;;12.83;85.58;100518.00;3619635;39;20043;-69
2023/10/14 03:58:03;;;;;;;12.57;2.38;;;;;;;12.53;84.99;100478.91;3617850;39;20408;-68
2023/10/14 04:00:37;;;;;;;10.40;2.42;;;;;;;12.69;84.95;100522.59;3618697;39;20059;-69
2023/10/14 04:03:12;;;;;;;9.38;2.00;;;;;;;12.63;85.00;100528.47;3618359;39;20054;-69
2023/10/14 04:05:59;;;;;;;8.35;2.22;;;;;;;12.61;85.04;100535.78;3614957;39;20051;-69
2023/10/14 04:08:30;;;;;;;10.52;2.13;;;;;;;12.58;85.71;100540.56;3615142;39;20299;-68
2023/10/14 04:11:11;;;;;;;8.60;1.83;;;;;;;12.53;85.96;100549.00;3620041;39;20127;-69
2023/10/14 04:13:40;;;;;;;11.82;2.55;;;;;;;12.31;85.75;100534.41;3615387;39;20377;-69
2023/10/14 04:16:07;;;;;;;7.30;2.20;;;;;;;12.44;86.44;100549.69;3607760;39;20108;-68
2023/10/14 04:18:34;;;;;;;13.65;2.47;;;;;;;12.25;86.90;100542.09;3614662;39;20321;-69
2023/10/14 04:21:15;;;;;;;9.02;1.85;;;;;;;12.33;86.44;100572.03;3618172;39;20046;-70
2023/10/14 04:26:25;;;;;;;9.20;2.55;;;;;;;12.06;87.29;100566.81;3617916;39;20320;-69
2023/10/14 04:28:53;;;;;;;12.23;2.78;;;;;;;12.20;87.53;100595.44;3616086;39;20118;-68
2023/10/14 04:31:43;;;;;;;8.95;1.92;;;;;;;12.18;87.67;100598.28;3616633;39;20042;-69
2023/10/14 04:34:14;;;;;;;8.15;1.92;;;;;;;12.14;87.93;100607.53;3615076;39;20377;-69
2023/10/14 04:36:53;;;;;;;8.63;2.00;;;;;;;12.10;87.86;100605.19;3615080;39;20267;-68
2023/10/14 04:39:29;;;;;;;10.50;2.40;;;;;;;12.07;88.11;100615.19;3620036;39;20046;-70
2023/10/14 04:44:45;;;;;;;10.80;2.15;;;;;;;12.02;88.91;100619.19;3615630;39;20478;-69
2023/10/14 04:47:25;;;;;;;14.07;2.70;;;;;;;11.99;88.79;100630.22;3617651;39;20123;-68
2023/10/14 04:49:53;;;;;;;11.63;2.50;;;;;;;11.95;89.15;100629.53;3606467;39;20385;-69
2023/10/14 04:52:19;;;;;;;9.20;2.20;;;;;;;11.98;89.74;100641.94;3616004;39;20043;-70
2023/10/14 04:54:53;;;;;;;9.40;2.20;;;;;;;11.76;89.49;100610.22;3614153;39;20094;-69
2023/10/14 04:57:20;;;;;;;13.10;2.60;;;;;;;11.90;89.31;100636.25;3615985;39;20050;-69
2023/10/14 04:59:53;;;;;;;14.35;2.30;;;;;;;11.59;89.67;100587.19;3606467;39;20277;-68
2023/10/14 05:02:20;;;;;;;8.13;2.13;;;;;;;11.87;89.29;100653.47;3617700;39;20043;-70
2023/10/14 05:04:49;;;;;;;11.63;2.22;;;;;;;11.84;89.82;100649.16;3615801;39;20420;-70
2023/10/14 05:07:15;;;;;;;8.20;2.25;;;;;;;11.85;89.88;100660.78;3618407;39;20119;-70
2023/10/14 05:09:49;;;;;;;6.53;2.25;;;;;;;11.83;90.09;100668.97;3609433;39;20349;-69
2023/10/14 05:12:24;;;;;;;11.75;2.58;;;;;;;11.80;89.88;100671.84;3616668;39;20091;-69
2023/10/14 05:14:49;;;;;;;12.45;2.25;;;;;;;11.79;89.41;100672.81;3615293;39;20054;-69
2023/10/14 05:17:16;;;;;;;11.27;2.30;;;;;;;11.34;89.68;100606.84;3618836;39;20304;-69
2023/10/14 05:19:43;;;;;;;10.82;2.30;;;;;;;11.59;89.98;100666.13;3612304;39;20540;-69
2023/10/14 05:22:18;;;;;;;12.27;3.05;;;;;;;11.70;90.26;100689.59;3620636;39;20049;-70
2023/10/14 05:24:49;;;;;;;7.80;2.15;;;;;;;11.68;90.42;100696.94;3615374;39;20073;-69
2023/10/14 05:27:19;;;;;;;12.55;2.20;;;;;;;11.65;90.26;100699.84;3617010;39;20053;-69
2023/10/14 05:29:50;;;;;;;13.10;2.97;;;;;;;11.58;90.50;100690.47;3621511;39;20107;-69
2023/10/14 05:32:23;;;;;;;9.48;2.15;;;;;;;11.62;90.39;100702.75;3619348;39;20057;-70
2023/10/14 05:34:50;;;;;;;11.63;2.22;;;;;;;11.48;90.08;100686.66;3619049;39;20470;-70
2023/10/14 05:37:16;;;;;;;13.25;2.38;;;;;;;11.56;89.93;100704.00;3622221;39;20081;-70
2023/10/14 05:39:43;;;;;;;13.50;2.67;;;;;;;11.55;90.08;100728.38;3620259;39;20043;-70
2023/10/14 05:42:16;;;;;;;6.78;2.00;;;;;;;11.55;90.19;100722.97;3610629;39;20046;-68
2023/10/14 05:44:47;;;;;;;10.02;2.55;;;;;;;11.53;90.49;100725.75;3613933;39;20386;-70
2023/10/14 05:47:18;;;;;;;11.18;2.42;;;;;;;11.50;89.94;100725.09;3616254;39;20111;-68
2023/10/14 05:49:44;;;;;;;9.30;2.38;;;;;;;11.47;89.76;100730.69;3617931;39;20058;-69
2023/10/14 05:52:13;;;;;;;9.93;2.20;;;;;;;11.53;89.70;100749.13;3616616;39;20051;-69
2023/10/14 05:54:45;;;;;;;8.70;2.10;;;;;;;11.56;89.81;100748.91;3617774;39;20057;-68
2023/10/14 05:57:10;;;;;;;12.40;2.50;;;;;;;11.43;89.37;100729.19;3605942;39;20058;-70
2023/10/14 05:59:37;;;;;;;14.60;2.50;;;;;;;11.58;89.59;100755.06;3617841;39;20061;-69
2023/10/14 06:02:07;;;;;;;11.27;2.58;;;;;;;11.55;89.71;100752.59;3619388;39;20086;-69
2023/10/14 06:04:39;;;;;;;6.30;1.77;;;;;;;11.55;89.58;100766.06;3621623;39;20423;-69
2023/10/14 06:07:18;;;;;;;11.20;2.28;;;;;;;11.54;89.18;100772.38;3621678;39;20470;-69
2023/10/14 06:09:47;;;;;;;12.85;2.70;;;;;;;11.55;88.81;100780.38;3617390;39;20058;-67
2023/10/14 06:12:14;;;;;;;7.22;2.30;;;;;;;11.56;88.60;100779.41;3622288;39;20050;-67
2023/10/14 06:14:44;;;;;;;13.73;2.58;;;;;;;11.47;87.53;100777.31;3616930;39;20365;-68
2023/10/14 06:17:12;;;;;;;12.23;2.65;;;;;;;11.51;87.26;100788.72;3622976;39;20050;-67
2023/10/14 06:19:38;;;;;;;8.50;2.10;;;;;;;11.18;87.29;100743.41;3621939;39;20046;-67
2023/10/14 06:22:07;;;;;;;9.23;2.05;;;;;;;11.50;87.31;100803.16;3623593;39;20123;-67
2023/10/14 06:24:34;;;;;;;11.45;2.08;;;;;;;11.48;86.91;100813.16;3623151;39;20046;-68
2023/10/14 06:27:19;;;;;;;13.23;2.70;;;;;;;11.49;87.28;100809.53;3619628;39;20043;-67
2023/10/14 06:29:45;;;;;;;8.73;2.00;;;;;;;11.52;86.86;100814.72;3621056;39;20120;-67
2023/10/14 06:32:11;;;;;;;11.55;2.38;;;;;;;11.53;86.77;100830.75;3619777;39;20098;-68
2023/10/14 06:34:39;;;;;;;10.23;2.17;;;;;;;11.57;86.87;100834.09;3619062;39;20050;-67
2023/10/14 06:37:07;;;;;;;9.98;2.50;;;;;;;11.26;86.99;100779.59;3624143;39;20122;-67
2023/10/14 06:39:38;;;;;;;9.32;2.17;;;;;;;11.68;86.78;100841.50;3618951;39;20662;-68
2023/10/14 06:42:04;;;;;;;9.57;1.75;;;;;;;11.71;86.09;100839.44;3621215;39;20390;-67
2023/10/14 06:44:32;;;;;;;9.95;2.65;;;;;;;11.74;86.50;100852.72;3620611;39;20054;-68
2023/10/14 06:47:00;;;;;;;9.77;2.40;;;;;;;11.78;85.66;100859.63;3622791;39;20081;-67
2023/10/14 06:49:32;;;;;;;9.13;2.95;;;;;;;11.79;86.43;100872.09;3620036;39;20355;-68
2023/10/14 06:51:59;;;;;;;10.23;2.33;;;;;;;11.78;85.97;100865.00;3622662;39;20046;-67
2023/10/14 06:54:30;;;;;;;10.65;2.42;;;;;;;11.84;85.44;100875.41;3617915;39;20386;-67
2023/10/14 06:56:56;;;;;;;6.55;2.10;;;;;;;11.81;85.36;100880.97;3620612;39;20367;-68
2023/10/14 06:59:22;;;;;;;11.27;2.08;;;;;;;11.84;85.25;100885.28;3622768;39;20050;-67
2023/10/14 07:01:48;;;;;;;10.35;2.10;;;;;;;11.83;85.47;100889.81;3619391;39;20084;-67
2023/10/14 07:04:16;;;;;;;9.68;2.25;;;;;;;11.76;85.46;100883.06;3623462;39;20054;-68
2023/10/14 07:06:47;;;;;;;9.63;2.00;;;;;;;11.83;85.55;100903.28;3613105;39;20051;-68
2023/10/14 07:09:17;;;;;;;5.70;1.95;;;;;;;11.85;85.20;100909.44;3620755;39;20051;-68
2023/10/14 07:11:47;;;;;;;7.95;2.33;;;;;;;11.81;84.88;100897.13;3607591;39;20039;-68
2023/10/14 07:14:13;;;;;;;11.82;2.38;;;;;;;11.90;84.74;100919.06;3619626;39;20053;-67
2023/10/14 07:16:40;;;;;;;13.60;2.10;;;;;;;11.93;84.64;100916.19;3619537;39;20047;-67
2023/10/14 07:19:06;;;;;;;9.75;2.03;;;;;;;11.99;84.55;100915.78;3609831;39;20289;-68
2023/10/14 07:21:31;;;;;;;7.13;2.00;;;;;;;11.85;83.98;100892.41;3618068;39;20086;-68
2023/10/14 07:24:05;;;;;;;11.15;2.63;;;;;;;12.08;84.49;100925.91;3608797;39;20278;-69
2023/10/14 07:26:36;;;;;;;;;;;;;;;12.16;83.73;100933.50;3610572;39;20054;-68
2023/10/14 07:29:05;;;;;;;12.07;2.42;;;;;;;12.25;83.26;100928.34;3617395;39;19957;-69
2023/10/14 07:31:32;;;;;;;9.00;2.22;;;;;;;12.42;82.95;100939.81;3619906;39;20399;-68
2023/10/14 07:34:02;;;;;;;10.23;2.00;;;;;;;12.54;82.45;100936.31;3618229;39;20046;-68
2023/10/14 07:36:30;;;;;;;13.23;2.58;;;;;;;12.66;82.06;100940.84;3616196;39;20039;-68
2023/10/14 07:39:26;;;;;;;15.45;2.40;;;;;;;12.76;81.12;100954.56;3619898;39;20124;-68
2023/10/14 07:41:52;;;;;;;10.68;2.60;;;;;;;12.90;80.58;100961.69;3617281;39;20057;-68
2023/10/14 07:44:22;;;;;;;11.82;2.47;;;;;;;12.85;79.48;100921.56;3615675;39;20051;-68
2023/10/14 07:46:50;;;;;;;8.82;2.28;;;;;;;12.99;78.44;100934.06;3614191;39;20067;-69
2023/10/14 07:49:15;;;;;;;11.25;2.55;;;;;;;13.29;77.94;100965.28;3614462;39;20058;-67
2023/10/14 07:51:42;;;;;;;9.70;2.08;;;;;;;13.43;77.28;100976.00;3615478;39;20118;-68
2023/10/14 07:54:08;;;;;;;8.57;2.33;;;;;;;13.51;75.46;100972.72;3617906;39;20053;-69
2023/10/14 07:56:34;;;;;;;12.30;2.72;;;;;;;13.66;76.11;100972.50;3619167;39;20082;-68
2023/10/14 07:59:01;;;;;;;9.50;2.13;;;;;;;13.79;74.39;100977.84;3619962;39;20055;-68
2023/10/14 08:01:27;;;;;;;9.65;3.00;;;;;;;13.78;72.94;100965.34;3614570;39;20378;-68
2023/10/14 08:03:57;;;;;;;10.85;2.95;;;;;;;13.98;72.54;100982.78;3615578;39;20046;-68
2023/10/14 08:06:22;;;;;;;10.32;2.60;;;;;;;14.10;72.13;100990.00;3615253;39;20088;-68
2023/10/14 08:08:50;;;;;;;12.20;2.55;;;;;;;14.28;71.55;100993.19;3615023;39;20070;-68
2023/10/14 08:11:16;;;;;;;12.40;2.35;;;;;;;14.35;70.91;101001.69;3619039;39;20106;-68
2023/10/14 08:13:43;;;;;;;8.93;2.22;;;;;;;14.39;70.42;100998.63;3605836;39;20065;-68
2023/10/14 08:16:11;;;;;;;10.15;2.55;;;;;;;14.47;70.32;100994.50;3617049;39;20047;-68
2023/10/14 08:18:41;;;;;;;7.45;2.33;;;;;;;14.56;69.10;101008.22;3614983;39;20079;-68
2023/10/14 08:21:09;;;;;;;12.35;2.63;;;;;;;14.55;68.74;101003.78;3617263;39;20038;-68
2023/10/14 08:23:35;;;;;;;7.25;2.47;;;;;;;14.66;68.55;101023.78;3614928;39;20321;-68
2023/10/14 08:26:02;;;;;;;8.50;2.60;;;;;;;14.73;68.47;101014.19;3617715;39;20167;-69
2023/10/14 08:28:28;;;;;;;8.98;2.20;;;;;;;14.94;68.19;101031.50;3616077;39;20055;-67
2023/10/14 08:30:58;;;;;;;10.13;2.65;;;;;;;14.96;67.36;101018.69;3618203;39;20057;-68
2023/10/14 08:33:30;;;;;;;11.30;2.60;;;;;;;15.12;65.82;101033.75;3606306;39;20043;-68
2023/10/14 08:35:56;;;;;;;7.30;2.47;;;;;;;15.19;66.30;101037.69;3618504;39;20402;-68
2023/10/14 08:38:22;;;;;;;11.45;3.55;;;;;;;15.18;66.14;101026.00;3615110;39;20150;-68
2023/10/14 08:40:53;;;;;;;12.35;2.95;;;;;;;15.44;67.17;101045.63;3616352;39;20063;-68
2023/10/14 08:43:35;;;;;;;10.98;2.85;;;;;;;15.62;65.47;101048.75;3618810;39;20381;-68
2023/10/14 08:46:03;;;;;;;8.88;2.20;;;;;;;15.69;64.23;101057.28;3616430;39;20050;-68
2023/10/14 08:48:33;;;;;;;11.40;2.80;;;;;;;15.75;63.58;101070.34;3618079;39;20042;-68
2023/10/14 08:50:59;;;;;;;10.75;2.50;;;;;;;15.83;63.91;101057.06;3617843;39;20263;-68
2023/10/14 08:53:27;;;;;;;11.18;2.75;;;;;;;16.00;63.45;101070.09;3619278;39;20057;-67
2023/10/14 08:55:53;;;;;;;8.95;2.92;;;;;;;16.09;62.01;101062.22;3616301;39;20344;-68
2023/10/14 08:58:22;;;;;;;10.98;2.17;;;;;;;16.16;61.44;101064.28;3616098;39;20101;-67
2023/10/14 09:00:51;;;;;;;11.50;2.30;;;;;;;16.22;61.39;101065.66;3613822;39;20067;-67
2023/10/14 09:03:17;;;;;;;10.13;2.80;;;;;;;16.27;60.76;101070.69;3615175;39;20050;-67
2023/10/14 09:05:44;;;;;;;12.77;2.60;;;;;;;16.35;61.64;101063.66;3613968;39;20057;-68
2023/10/14 09:08:17;;;;;;;7.43;2.30;;;;;;;16.51;60.91;101074.09;3613501;39;20055;-68
2023/10/14 09:10:44;;;;;;;10.98;2.72;;;;;;;16.57;60.15;101078.16;3614258;39;20070;-68
2023/10/14 09:13:19;;;;;;;10.82;2.85;;;;;;;16.60;58.20;101094.19;3613800;39;20336;-68
2023/10/14 09:15:44;;;;;;;12.18;2.88;;;;;;;16.60;59.65;101081.47;3615510;39;21557;-68
2023/10/14 09:18:21;;;;;;;11.90;2.63;;;;;;;16.71;58.48;101075.13;3614865;39;20061;-67
2023/10/14 09:20:55;;;;;;;11.38;2.53;;;;;;;16.94;58.14;101090.41;3612988;39;20332;-67
2023/10/14 09:23:39;;;;;;;12.98;3.13;;;;;;;16.89;56.85;101080.91;3614033;39;20066;-68
2023/10/14 09:26:06;;;;;;;8.77;2.40;;;;;;;16.96;56.87;101090.25;3615319;39;20055;-67
2023/10/14 09:28:35;;;;;;;9.07;2.35;;;;;;;16.88;56.39;101074.63;3612629;39;20050;-68
2023/10/14 09:31:04;;;;;;;12.00;2.42;;;;;;;17.14;56.16;101090.56;3613360;39;20050;-68
2023/10/14 09:33:34;;;;;;;9.55;2.10;;;;;;;17.25;56.07;101090.50;3614733;39;20059;-68
2023/10/14 09:36:06;;;;;;;9.27;2.38;;;;;;;17.32;55.93;101091.72;3616070;39;20086;-69
2023/10/14 09:38:33;;;;;;;10.80;2.67;;;;;;;17.45;55.19;101090.66;3614663;39;20078;-68
2023/10/14 09:41:03;;;;;;;11.65;2.53;;;;;;;17.54;53.87;101100.72;3615862;39;20055;-67
2023/10/14 09:43:32;;;;;;;14.63;3.22;;;;;;;17.58;53.66;101094.88;3613909;39;20070;-68
2023/10/14 09:46:03;;;;;;;8.50;2.35;;;;;;;17.69;53.56;101104.81;3615706;39;20080;-69
2023/10/14 09:48:32;;;;;;;8.75;2.47;;;;;;;17.61;52.32;101112.78;3613369;39;20055;-69
2023/10/14 09:51:00;;;;;;;6.65;2.10;;;;;;;17.32;51.04;101118.88;3614750;39;20300;-68
2023/10/14 09:53:36;;;;;;;9.23;2.40;;;;;;;17.18;52.07;101100.16;3614757;39;20094;-68
2023/10/14 09:56:07;;;;;;;6.68;2.00;;;;;;;17.01;52.52;101103.47;3613732;39;20477;-68
2023/10/14 09:58:36;;;;;;;9.73;2.42;;;;;;;16.98;51.12;101109.16;3614103;39;20378;-68
2023/10/14 10:01:05;;;;;;;7.38;2.67;;;;;;;16.68;52.72;101037.38;3613545;39;20051;-68
2023/10/14 10:03:49;;;;;;;7.20;1.98;;;;;;;17.35;51.34;101113.19;3614276;39;20123;-68
2023/10/14 10:06:35;;;;;;;7.75;2.50;;;;;;;17.39;51.32;101111.06;3613508;39;20139;-67
2023/10/14 10:09:47;;;;;;;7.38;1.80;;;;;;;17.57;49.69;101111.31;3617807;39;20058;-68
2023/10/14 10:12:17;;;;;;;6.50;1.75;;;;;;;17.71;49.93;101118.28;3597911;39;20320;-69
2023/10/14 10:14:44;;;;;;;8.25;2.33;;;;;;;17.88;49.78;101119.53;3614600;39;20104;-67
2023/10/14 10:17:12;;;;;;;8.95;2.08;;;;;;;18.03;47.31;101113.63;3615350;39;20103;-69
2023/10/14 10:20:13;;;;;;;6.35;1.70;;;;;;;18.24;49.18;101129.03;3613182;39;20085;-68
2023/10/14 10:22:55;;;;;;;7.85;1.90;;;;;;;18.37;47.92;101117.91;3579400;40;20103;-68
2023/10/14 10:25:47;;;;;;;6.82;1.90;;;;;;;18.52;44.74;101119.22;3611497;39;20069;-68
2023/10/14 10:28:27;;;;;;;7.97;2.00;;;;;;;18.24;43.61;101135.34;3613296;39;20050;-67
2023/10/14 10:30:57;;;;;;;8.13;1.88;;;;;;;18.13;46.12;101129.97;3612662;39;20091;-68
2023/10/14 10:33:59;;;;;;;5.40;1.73;;;;;;;17.89;44.75;101134.84;3614242;39;20063;-69
2023/10/14 10:36:33;;;;;;;6.93;2.00;;;;;;;17.85;46.58;101137.84;3616608;39;20054;-68
2023/10/14 10:39:16;;;;;;;9.48;2.20;;;;;;;17.49;46.29;101116.56;3613425;39;20123;-69
2023/10/14 10:41:43;;;;;;;;;;;;;;;17.32;48.64;101147.91;3608397;39;20086;-68
2023/10/14 10:44:12;;;;;;;10.25;2.25;;;;;;;17.21;48.92;101137.94;3620930;39;20311;-68
2023/10/14 10:46:46;;;;;;;9.77;2.10;;;;;;;16.79;48.16;101115.28;3604430;39;20039;-68
2023/10/14 10:49:16;;;;;;;10.00;2.30;;;;;;;16.62;49.39;101146.50;3614010;39;20043;-68
2023/10/14 10:51:50;;;;;;;8.95;2.00;;;;;;;16.39;50.15;101157.34;3613904;39;20051;-68
2023/10/14 10:54:20;;;;;;;9.48;1.92;;;;;;;16.18;49.95;101168.09;3614592;39;20122;-68
2023/10/14 10:56:46;;;;;;;6.15;1.88;;;;;;;16.11;50.40;101176.84;3617791;39;20046;-68
2023/10/14 10:59:12;;;;;;;10.15;2.63;;;;;;;16.13;51.28;101156.75;3616850;39;20049;-69
2023/10/14 11:01:40;;;;;;;13.45;2.53;;;;;;;16.21;49.72;101104.63;3617165;39;20305;-69
2023/10/14 11:04:12;;;;;;;5.97;1.92;;;;;;;17.00;50.07;101162.38;3619983;39;20059;-68
2023/10/14 11:06:38;;;;;;;11.18;2.45;;;;;;;17.43;49.18;101158.72;3615424;39;20061;-68
2023/10/14 11:09:05;;;;;;;8.50;2.25;;;;;;;17.73;48.57;101162.50;3618154;39;20062;-68
2023/10/14 11:11:33;;;;;;;7.20;2.10;;;;;;;17.96;47.09;101168.72;3615904;39;20131;-68
2023/10/14 11:14:16;;;;;;;7.53;2.38;;;;;;;18.35;47.92;101166.16;3616757;39;20383;-68
2023/10/14 11:16:52;;;;;;;8.98;2.08;;;;;;;18.64;47.41;101161.69;3613630;39;20400;-67
2023/10/14 11:19:20;;;;;;;7.82;2.25;;;;;;;19.05;45.47;101170.69;3614384;39;20051;-68
2023/10/14 11:21:51;;;;;;;8.13;2.30;;;;;;;19.01;44.35;101161.09;3615740;39;20053;-68
2023/10/14 11:24:17;;;;;;;8.43;1.77;;;;;;;19.07;44.38;101165.97;3614787;39;20062;-67
2023/10/14 11:26:44;;;;;;;8.38;2.03;;;;;;;19.13;43.98;101159.94;3614146;39;20070;-68
2023/10/14 11:29:11;;;;;;;7.07;2.08;;;;;;;19.27;42.14;101165.97;3616627;39;20434;-67
2023/10/14 11:31:40;;;;;;;7.70;2.10;;;;;;;19.25;40.34;101172.44;3615359;39;20055;-67
2023/10/14 11:34:06;;;;;;;5.88;1.92;;;;;;;19.23;39.35;101174.44;3617347;39;20293;-67
2023/10/14 11:36:32;;;;;;;5.35;2.05;;;;;;;19.26;38.97;101162.41;3616991;39;20042;-67
2023/10/14 11:39:02;;;;;;;8.30;2.15;;;;;;;19.44;40.67;101171.59;3615876;39;20055;-68
2023/10/14 11:41:27;;;;;;;6.70;1.80;;;;;;;19.59;39.19;101169.25;3615019;39;20051;-68
2023/10/14 11:43:54;;;;;;;6.50;2.00;;;;;;;19.54;39.44;101138.00;3614103;39;20131;-67
2023/10/14 11:46:21;;;;;;;5.55;1.90;;;;;;;19.94;39.39;101176.84;3618137;39;20094;-67
2023/10/14 11:48:48;;;;;;;5.25;1.75;;;;;;;19.65;40.05;101163.25;3606681;39;20074;-66
2023/10/14 11:51:20;;;;;;;7.55;2.30;;;;;;;19.21;40.36;101187.34;3615805;39;20382;-68
2023/10/14 11:53:52;;;;;;;6.22;1.58;;;;;;;18.76;41.45;101192.44;3615189;39;20070;-67
2023/10/14 11:56:19;;;;;;;8.52;1.95;;;;;;;18.42;43.23;101191.84;3622102;39;20046;-67
2023/10/14 11:58:45;;;;;;;7.47;2.15;;;;;;;17.91;44.64;101168.25;3617569;39;20073;-67
2023/10/14 12:01:12;;;;;;;8.25;2.13;;;;;;;18.48;45.00;101180.41;3617497;39;20286;-68
2023/10/14 12:03:39;;;;;;;8.60;2.38;;;;;;;19.05;44.44;101189.75;3614141;39;20047;-67
2023/10/14 12:06:11;;;;;;;8.82;2.25;;;;;;;19.57;43.92;101187.66;3614464;39;20405;-67
2023/10/14 12:08:38;;;;;;;7.32;2.05;;;;;;;19.89;41.32;101164.66;3614075;39;20174;-66
2023/10/14 12:11:08;;;;;;;8.20;2.08;;;;;;;20.17;39.23;101185.56;3614961;39;20055;-67